Time;durP1;ratioP1;P1;durP2;ratioP2;P2;SDS_P1;SDS_P2;PMS_P1;PMS_P2;Temp;Humidity;BMP_temperature;BMP_pressure;BME280_temperature;BME280_humidity;BME280_pressure;Samples;Min_cycle;Max_cycle;Signal;HPM_P1;HPM_P2
2022/04/04 00:00:15;;;;;;;6.72;6.03;;;1.80;99.90;;;;;;4980883;28;20209;-46
2022/04/04 00:02:42;;;;;;;9.60;7.05;;;1.70;99.90;;;;;;4980892;28;20248;-49
2022/04/04 00:05:11;;;;;;;7.25;5.07;;;1.60;99.90;;;;;;4981487;28;20201;-49
2022/04/04 00:07:39;;;;;;;6.80;5.13;;;1.50;99.90;;;;;;4981844;28;20261;-49
2022/04/04 00:10:08;;;;;;;7.25;5.03;;;1.40;99.90;;;;;;4982045;28;20496;-49
2022/04/04 00:12:38;;;;;;;6.10;4.95;;;1.50;99.90;;;;;;4981639;28;20202;-50
2022/04/04 00:15:06;;;;;;;12.63;5.88;;;1.40;99.90;;;;;;4982217;28;20206;-49
2022/04/04 00:17:33;;;;;;;8.18;6.00;;;1.50;99.90;;;;;;4983724;28;20229;-50
2022/04/04 00:20:01;;;;;;;10.30;6.65;;;1.50;99.90;;;;;;4989412;28;20257;-52
2022/04/04 00:22:33;;;;;;;5.55;4.85;;;1.60;99.90;;;;;;4984827;28;20232;-49
2022/04/04 00:25:02;;;;;;;9.35;5.88;;;1.70;99.90;;;;;;4980723;28;20452;-50
2022/04/04 00:27:30;;;;;;;6.43;4.93;;;1.50;99.90;;;;;;4980558;28;20541;-48
2022/04/04 00:29:57;;;;;;;6.93;5.60;;;1.60;99.90;;;;;;4980567;28;20210;-49
2022/04/04 00:32:27;;;;;;;8.18;4.70;;;1.60;99.90;;;;;;4980777;28;20568;-46
2022/04/04 00:34:55;;;;;;;6.75;4.55;;;1.50;99.90;;;;;;4980916;28;20206;-51
2022/04/04 00:37:22;;;;;;;5.30;4.43;;;1.30;99.90;;;;;;4980703;28;20222;-51
2022/04/04 00:39:49;;;;;;;7.80;5.57;;;1.20;99.90;;;;;;4980607;28;20234;-50
2022/04/04 00:42:17;;;;;;;6.15;4.20;;;1.40;99.90;;;;;;4980469;28;20246;-50
2022/04/04 00:44:45;;;;;;;5.43;4.57;;;1.50;99.90;;;;;;4980331;28;20321;-50
2022/04/04 00:47:12;;;;;;;6.70;4.60;;;1.70;99.90;;;;;;4973771;28;20477;-49
2022/04/04 00:49:40;;;;;;;7.15;5.30;;;1.80;99.90;;;;;;4980389;28;20691;-46
2022/04/04 00:52:08;;;;;;;5.20;4.70;;;1.80;99.90;;;;;;4980548;28;20202;-47
2022/04/04 00:54:35;;;;;;;5.90;4.93;;;1.70;99.90;;;;;;4980592;28;20253;-46
2022/04/04 00:57:02;;;;;;;7.82;5.35;;;1.60;99.90;;;;;;4980541;28;20346;-49
2022/04/04 00:59:31;;;;;;;5.20;4.70;;;1.50;99.90;;;;;;4980532;28;20557;-50
2022/04/04 01:01:58;;;;;;;5.35;4.78;;;1.40;99.90;;;;;;4980466;28;20222;-52
2022/04/04 01:04:25;;;;;;;6.30;4.82;;;1.50;99.90;;;;;;4980636;28;20513;-47
2022/04/04 01:06:53;;;;;;;7.80;5.35;;;1.50;99.90;;;;;;4980387;28;20409;-46
2022/04/04 01:09:20;;;;;;;5.10;4.70;;;1.50;99.90;;;;;;4980529;28;20198;-46
2022/04/04 01:12:10;;;;;;;5.75;4.97;;;1.50;99.90;;;;;;4980038;28;20529;-48
2022/04/04 01:14:40;;;;;;;5.05;4.45;;;1.60;99.90;;;;;;4980604;28;20237;-50
2022/04/04 01:17:08;;;;;;;7.20;5.45;;;1.60;99.90;;;;;;4980182;28;20276;-51
2022/04/04 01:19:35;;;;;;;6.00;5.40;;;1.70;99.90;;;;;;4984011;28;20206;-48
2022/04/04 01:22:09;;;;;;;5.60;4.55;;;1.80;99.90;;;;;;4983373;28;20265;-50
2022/04/04 01:24:38;;;;;;;4.85;4.35;;;1.80;99.90;;;;;;4984138;28;20378;-46
2022/04/04 01:27:07;;;;;;;4.50;3.95;;;1.80;99.90;;;;;;4983396;28;20218;-50
2022/04/04 01:29:36;;;;;;;6.10;4.28;;;1.80;99.90;;;;;;4984140;28;20230;-45
2022/04/04 01:32:05;;;;;;;6.82;5.38;;;1.80;99.90;;;;;;4983335;28;20277;-48
2022/04/04 01:34:33;;;;;;;5.20;4.70;;;1.80;99.90;;;;;;4983391;28;20256;-49
2022/04/04 01:37:00;;;;;;;5.45;4.40;;;1.70;99.90;;;;;;4983291;28;20277;-46
2022/04/04 01:39:27;;;;;;;4.90;4.45;;;1.80;99.90;;;;;;4983409;28;20206;-49
2022/04/04 01:41:54;;;;;;;6.45;5.25;;;1.80;99.90;;;;;;4983164;28;20495;-47
2022/04/04 01:44:21;;;;;;;7.20;4.78;;;2.00;99.90;;;;;;4983760;28;20240;-46
2022/04/04 01:46:48;;;;;;;5.82;5.13;;;2.00;99.90;;;;;;4982762;28;20218;-52
2022/04/04 01:49:15;;;;;;;5.43;4.93;;;2.00;99.90;;;;;;4982085;28;20208;-47
2022/04/04 01:51:43;;;;;;;5.63;5.03;;;2.00;99.90;;;;;;4983117;28;20206;-51
2022/04/04 01:54:11;;;;;;;5.45;4.95;;;2.30;99.90;;;;;;4982884;28;20565;-47
2022/04/04 01:56:41;;;;;;;6.65;4.82;;;2.20;99.90;;;;;;4982839;28;20380;-48
2022/04/04 01:59:10;;;;;;;6.53;5.65;;;2.40;99.90;;;;;;4982493;28;20228;-48
2022/04/04 02:01:37;;;;;;;7.43;5.90;;;2.40;99.90;;;;;;4982805;28;20234;-46
2022/04/04 02:04:08;;;;;;;8.07;6.07;;;2.40;99.90;;;;;;4982847;28;20198;-49
2022/04/04 02:06:37;;;;;;;5.78;5.28;;;2.40;99.90;;;;;;4982833;28;20210;-46
2022/04/04 02:09:04;;;;;;;8.30;6.18;;;2.40;99.90;;;;;;4982851;28;20216;-46
2022/04/04 02:11:31;;;;;;;7.70;6.90;;;2.50;99.90;;;;;;4983039;28;20350;-51
2022/04/04 02:14:02;;;;;;;7.28;5.63;;;2.40;99.90;;;;;;4982549;28;20206;-48
2022/04/04 02:16:31;;;;;;;6.30;5.80;;;2.30;99.90;;;;;;4982598;28;20198;-51
2022/04/04 02:18:59;;;;;;;9.60;7.20;;;2.30;99.90;;;;;;4982732;28;20198;-52
2022/04/04 02:21:27;;;;;;;8.35;7.10;;;2.30;99.90;;;;;;4983254;28;20205;-46
2022/04/04 02:23:54;;;;;;;8.55;6.43;;;2.30;99.90;;;;;;4983060;28;20517;-50
2022/04/04 02:26:21;;;;;;;8.73;6.20;;;2.30;99.90;;;;;;4981825;28;20206;-48
2022/04/04 02:28:48;;;;;;;7.30;6.60;;;2.30;99.90;;;;;;4984315;28;20210;-48
2022/04/04 02:31:16;;;;;;;7.25;5.57;;;2.20;99.90;;;;;;4984393;28;20198;-47
2022/04/04 02:33:43;;;;;;;6.00;5.40;;;2.30;99.90;;;;;;4983009;28;20206;-48
2022/04/04 02:36:12;;;;;;;6.10;5.63;;;2.60;99.90;;;;;;4983077;28;20249;-51
2022/04/04 02:38:44;;;;;;;7.00;5.13;;;2.50;99.90;;;;;;4982345;28;20203;-51
2022/04/04 02:41:11;;;;;;;15.23;5.85;;;2.50;99.90;;;;;;4982325;28;20622;-50
2022/04/04 02:43:39;;;;;;;6.38;5.00;;;2.60;99.90;;;;;;4982095;28;20226;-47
2022/04/04 02:46:08;;;;;;;6.72;5.32;;;2.60;99.90;;;;;;4982300;28;20202;-48
2022/04/04 02:48:36;;;;;;;5.72;5.13;;;2.60;99.90;;;;;;4981721;28;20265;-49
2022/04/04 02:51:03;;;;;;;6.63;6.03;;;2.40;99.90;;;;;;4980875;28;20198;-48
2022/04/04 02:53:30;;;;;;;8.13;6.05;;;2.60;99.90;;;;;;4981273;28;20379;-49
2022/04/04 02:58:43;;;;;;;9.05;6.80;;;2.60;99.90;;;;;;4982202;28;20219;-49
2022/04/04 03:01:11;;;;;;;7.55;6.30;;;2.70;99.90;;;;;;4981719;28;20409;-47
2022/04/04 03:03:39;;;;;;;5.90;5.40;;;2.80;99.90;;;;;;4981942;28;20219;-45
2022/04/04 03:06:07;;;;;;;6.43;5.75;;;3.00;99.90;;;;;;4981736;28;20357;-46
2022/04/04 03:08:36;;;;;;;6.43;5.82;;;3.00;99.90;;;;;;4982138;28;20258;-47
2022/04/04 03:11:03;;;;;;;5.72;5.22;;;3.00;99.90;;;;;;4981746;28;20382;-49
2022/04/04 03:13:31;;;;;;;6.28;5.68;;;3.10;99.90;;;;;;4982492;28;20206;-47
2022/04/04 03:15:58;;;;;;;7.93;6.10;;;3.10;99.90;;;;;;4981961;28;20244;-47
2022/04/04 03:18:26;;;;;;;5.57;5.18;;;3.00;99.90;;;;;;4982442;28;20277;-46
2022/04/04 03:20:56;;;;;;;6.13;5.38;;;3.00;99.90;;;;;;4981835;28;20450;-47
2022/04/04 03:23:27;;;;;;;6.88;4.95;;;3.00;99.90;;;;;;4982222;28;20606;-48
2022/04/04 03:25:54;;;;;;;6.85;5.22;;;3.20;99.90;;;;;;4981453;28;20195;-49
2022/04/04 03:28:22;;;;;;;6.70;6.07;;;3.10;99.90;;;;;;4981283;28;20219;-48
2022/04/04 03:30:49;;;;;;;5.57;5.07;;;3.00;99.90;;;;;;4981751;28;20214;-46
2022/04/04 03:33:19;;;;;;;7.10;5.93;;;3.00;99.90;;;;;;4981815;28;20202;-48
2022/04/04 03:35:47;;;;;;;9.05;7.03;;;2.90;99.90;;;;;;4984605;28;20195;-55
2022/04/04 03:38:15;;;;;;;6.07;5.07;;;3.00;99.90;;;;;;4989043;28;20401;-51
2022/04/04 03:40:43;;;;;;;7.43;5.13;;;3.00;99.90;;;;;;4989868;28;20206;-54
2022/04/04 03:43:10;;;;;;;9.38;5.10;;;3.10;99.90;;;;;;4989184;28;20217;-54
2022/04/04 03:45:38;;;;;;;9.55;5.97;;;3.10;99.90;;;;;;4991184;28;20207;-56
2022/04/04 03:48:06;;;;;;;8.45;5.75;;;3.00;99.90;;;;;;4985926;28;20224;-55
2022/04/04 03:50:37;;;;;;;6.55;5.65;;;3.00;99.90;;;;;;4993531;28;20211;-54
2022/04/04 03:53:06;;;;;;;10.32;5.90;;;3.10;99.90;;;;;;4992449;28;20207;-55
2022/04/04 03:55:37;;;;;;;6.90;5.28;;;3.20;99.90;;;;;;4980935;28;20303;-47
2022/04/04 03:58:07;;;;;;;11.77;7.07;;;3.10;99.90;;;;;;4975170;28;20227;-46
2022/04/04 04:00:38;;;;;;;8.48;6.88;;;3.10;99.90;;;;;;4978694;28;20261;-49
2022/04/04 04:03:06;;;;;;;8.50;7.03;;;3.00;99.90;;;;;;4980696;28;20256;-47
2022/04/04 04:05:35;;;;;;;14.90;7.65;;;3.00;99.90;;;;;;4980941;28;20218;-49
2022/04/04 04:08:03;;;;;;;6.05;5.38;;;3.00;99.90;;;;;;4980921;28;20246;-45
2022/04/04 04:10:30;;;;;;;5.93;5.40;;;2.90;99.90;;;;;;4980272;28;20202;-50
2022/04/04 04:12:58;;;;;;;5.97;5.47;;;2.90;99.90;;;;;;4964849;28;20207;-48
2022/04/04 04:15:25;;;;;;;6.63;5.28;;;3.00;99.90;;;;;;4973714;28;20419;-47
2022/04/04 04:17:53;;;;;;;7.50;6.80;;;2.90;99.90;;;;;;4972060;28;20230;-45
2022/04/04 04:20:25;;;;;;;6.22;5.60;;;2.90;99.90;;;;;;4980592;28;20577;-50
2022/04/04 04:23:08;;;;;;;7.18;6.45;;;2.80;99.90;;;;;;4980266;28;20437;-47
2022/04/04 04:25:36;;;;;;;7.75;5.97;;;2.70;99.90;;;;;;4981225;28;20245;-51
2022/04/04 04:28:06;;;;;;;7.53;5.68;;;2.70;99.90;;;;;;4980464;28;20269;-48
2022/04/04 04:30:35;;;;;;;6.30;5.70;;;2.70;99.90;;;;;;4981305;28;20198;-47
2022/04/04 04:33:03;;;;;;;7.00;6.30;;;2.60;99.90;;;;;;4972030;28;20520;-49
2022/04/04 04:35:31;;;;;;;6.75;6.15;;;2.40;99.90;;;;;;4980630;28;20482;-50
2022/04/04 04:37:58;;;;;;;7.25;6.55;;;2.20;99.90;;;;;;4980020;28;20310;-50
2022/04/04 04:40:26;;;;;;;6.63;5.95;;;2.40;99.90;;;;;;4980858;28;20325;-47
2022/04/04 04:42:55;;;;;;;7.97;6.90;;;2.30;99.90;;;;;;4965136;28;20231;-51
2022/04/04 04:45:22;;;;;;;7.25;6.57;;;2.10;99.90;;;;;;4963247;28;20203;-48
2022/04/04 04:47:50;;;;;;;7.28;6.57;;;2.10;99.90;;;;;;4961629;28;20219;-46
2022/04/04 04:50:20;;;;;;;10.95;7.10;;;2.10;99.90;;;;;;4967336;28;20202;-47
2022/04/04 04:52:50;;;;;;;7.88;7.05;;;2.10;99.90;;;;;;4970243;28;20242;-48
2022/04/04 04:55:21;;;;;;;11.38;6.93;;;2.20;99.90;;;;;;4977805;28;20241;-47
2022/04/04 04:57:50;;;;;;;6.63;6.03;;;2.30;99.90;;;;;;4984668;28;20222;-51
2022/04/04 05:00:22;;;;;;;7.65;6.85;;;2.30;99.90;;;;;;4978676;28;20525;-44
2022/04/04 05:05:40;;;;;;;7.18;6.45;;;2.30;99.90;;;;;;4979255;28;20202;-47
2022/04/04 05:08:08;;;;;;;7.97;5.82;;;2.30;99.90;;;;;;4993628;28;20226;-50
2022/04/04 05:10:35;;;;;;;7.43;6.72;;;2.40;99.90;;;;;;5003685;28;20393;-47
2022/04/04 05:13:03;;;;;;;9.10;5.78;;;2.50;99.90;;;;;;4984235;28;20291;-48
2022/04/04 05:15:31;;;;;;;6.65;6.05;;;2.80;99.90;;;;;;4982799;28;20203;-48
2022/04/04 05:18:04;;;;;;;10.35;8.35;;;3.10;99.90;;;;;;4982411;28;20234;-52
2022/04/04 05:20:32;;;;;;;7.05;6.35;;;3.30;99.90;;;;;;4984078;28;20384;-52
2022/04/04 05:22:59;;;;;;;8.88;6.15;;;3.50;99.90;;;;;;4983281;28;20267;-49
2022/04/04 05:25:27;;;;;;;6.65;6.05;;;3.80;99.90;;;;;;4983960;28;20404;-50
2022/04/04 05:27:56;;;;;;;7.57;6.50;;;4.10;99.90;;;;;;4983093;28;20224;-50
2022/04/04 05:30:24;;;;;;;8.38;6.75;;;4.20;99.90;;;;;;4982871;28;20370;-50
2022/04/04 05:32:51;;;;;;;8.13;7.28;;;4.50;99.90;;;;;;4976246;28;20391;-49
2022/04/04 05:35:19;;;;;;;12.40;8.90;;;4.90;99.90;;;;;;4977949;28;20213;-48
2022/04/04 05:37:47;;;;;;;7.20;5.82;;;5.20;99.90;;;;;;4984335;28;20226;-52
2022/04/04 05:40:14;;;;;;;8.95;7.07;;;5.70;99.90;;;;;;4983611;28;20206;-53
2022/04/04 05:42:42;;;;;;;8.40;7.70;;;6.00;99.90;;;;;;4984154;28;20254;-54
2022/04/04 05:45:10;;;;;;;7.28;6.50;;;6.50;99.90;;;;;;4983545;28;20206;-51
2022/04/04 05:47:37;;;;;;;9.35;5.68;;;7.00;99.90;;;;;;4983654;28;20257;-52
2022/04/04 05:50:07;;;;;;;9.90;6.18;;;7.70;99.90;;;;;;4983716;28;20206;-50
2022/04/04 05:52:37;;;;;;;6.63;6.00;;;8.00;99.90;;;;;;4982973;28;20205;-54
2022/04/04 05:55:06;;;;;;;5.55;5.10;;;8.60;99.90;;;;;;4982999;28;20378;-54
2022/04/04 05:57:38;;;;;;;7.65;6.82;;;9.00;99.90;;;;;;4982930;28;20224;-51
2022/04/04 06:00:10;;;;;;;8.25;5.65;;;9.30;99.90;;;;;;4982908;28;20211;-50
2022/04/04 06:02:38;;;;;;;8.48;6.15;;;9.60;99.90;;;;;;4983232;28;20204;-50
2022/04/04 06:05:09;;;;;;;6.43;5.82;;;9.70;99.90;;;;;;4982299;28;20200;-50
2022/04/04 06:07:37;;;;;;;5.72;5.22;;;10.20;99.90;;;;;;4982314;28;20269;-53
2022/04/04 06:10:06;;;;;;;6.80;6.20;;;10.50;99.90;;;;;;4982313;28;20505;-53
2022/04/04 06:12:36;;;;;;;8.40;5.90;;;10.90;99.90;;;;;;4982863;28;20536;-51
2022/04/04 06:15:04;;;;;;;5.85;5.35;;;11.10;99.90;;;;;;4982334;28;20198;-52
2022/04/04 06:17:31;;;;;;;5.28;4.78;;;12.30;99.90;;;;;;4982438;28;20222;-51
2022/04/04 06:19:58;;;;;;;7.32;5.40;;;13.00;98.30;;;;;;4981911;28;20209;-49
2022/04/04 06:22:26;;;;;;;7.25;5.85;;;12.50;97.50;;;;;;4982646;28;20206;-48
2022/04/04 06:24:53;;;;;;;6.32;5.78;;;13.30;96.30;;;;;;4982202;28;20281;-57
2022/04/04 06:27:20;;;;;;;9.57;5.70;;;13.60;94.70;;;;;;4982615;28;20258;-48
2022/04/04 06:29:47;;;;;;;7.00;5.72;;;13.90;93.80;;;;;;4982959;28;20220;-52
2022/04/04 06:32:15;;;;;;;5.95;5.40;;;14.10;93.50;;;;;;4982525;28;20198;-52
2022/04/04 06:34:42;;;;;;;6.40;5.80;;;14.70;92.10;;;;;;4982832;28;20518;-50
2022/04/04 06:37:10;;;;;;;6.20;5.70;;;14.80;90.70;;;;;;4981771;28;20226;-53
2022/04/04 06:39:38;;;;;;;8.20;6.50;;;15.10;90.00;;;;;;4982602;28;20492;-49
2022/04/04 06:42:06;;;;;;;7.23;5.37;;;15.30;87.40;;;;;;4982400;28;20403;-49
2022/04/04 06:44:33;;;;;;;7.27;6.67;;;15.90;84.90;;;;;;4982562;28;20487;-51
2022/04/04 06:47:00;;;;;;;6.57;5.97;;;15.50;85.80;;;;;;4982148;28;20511;-50
2022/04/04 06:49:27;;;;;;;6.10;5.50;;;17.00;82.20;;;;;;4982478;28;20435;-52
2022/04/04 06:51:56;;;;;;;7.07;6.37;;;17.80;78.00;;;;;;4981845;28;20432;-52
2022/04/04 06:54:23;;;;;;;6.10;5.60;;;17.60;77.20;;;;;;4981832;28;20416;-54
2022/04/04 06:56:53;;;;;;;5.80;5.30;;;17.20;76.00;;;;;;4982028;28;20622;-50
2022/04/04 06:59:20;;;;;;;9.87;7.20;;;17.20;75.70;;;;;;4981758;28;20417;-49
2022/04/04 07:01:49;;;;;;;7.10;6.40;;;17.60;74.30;;;;;;4981728;28;20452;-54
2022/04/04 07:04:17;;;;;;;6.60;6.00;;;17.60;74.50;;;;;;4981616;28;20446;-54
2022/04/04 07:06:44;;;;;;;7.00;6.40;;;18.10;70.70;;;;;;4981469;28;20604;-54
2022/04/04 07:09:12;;;;;;;5.57;5.17;;;18.60;72.30;;;;;;4981314;28;20519;-53
2022/04/04 07:11:40;;;;;;;10.80;6.20;;;19.30;68.90;;;;;;4981375;28;20601;-52
2022/04/04 07:14:08;;;;;;;6.00;5.50;;;19.50;69.10;;;;;;4980975;28;20433;-50
2022/04/04 07:16:37;;;;;;;5.33;4.83;;;20.20;66.20;;;;;;4980368;28;20451;-55
2022/04/04 07:19:05;;;;;;;5.87;5.37;;;19.90;64.90;;;;;;4980912;28;20458;-51
2022/04/04 07:21:33;;;;;;;5.03;4.53;;;18.50;68.00;;;;;;4981384;28;20642;-50
2022/04/04 07:24:02;;;;;;;8.33;6.37;;;17.90;69.20;;;;;;4981100;28;20539;-49
2022/04/04 07:26:32;;;;;;;8.53;6.13;;;17.30;70.90;;;;;;4973692;28;20676;-49
2022/04/04 07:28:59;;;;;;;5.50;4.80;;;18.20;69.40;;;;;;4974905;28;20418;-52
2022/04/04 07:31:27;;;;;;;5.13;4.63;;;18.60;69.30;;;;;;4974484;28;20418;-53
2022/04/04 07:33:55;;;;;;;6.47;5.17;;;18.10;67.80;;;;;;4974159;28;20517;-54
2022/04/04 07:36:23;;;;;;;7.80;5.63;;;18.30;67.70;;;;;;4973552;28;20439;-53
2022/04/04 07:38:50;;;;;;;5.63;5.13;;;18.90;66.00;;;;;;4980448;28;20467;-55
2022/04/04 07:41:18;;;;;;;5.30;4.80;;;18.50;67.80;;;;;;4965209;28;20432;-48
2022/04/04 07:43:46;;;;;;;5.37;4.87;;;17.70;68.00;;;;;;4980747;28;20479;-56
2022/04/04 07:46:14;;;;;;;4.57;4.17;;;17.10;70.80;;;;;;4980619;28;20405;-49
2022/04/04 07:48:42;;;;;;;9.10;5.20;;;18.10;68.40;;;;;;4980619;28;20484;-54
2022/04/04 07:51:09;;;;;;;6.33;4.40;;;18.60;66.30;;;;;;4980499;28;20770;-52
2022/04/04 07:53:36;;;;;;;8.83;5.10;;;19.60;65.60;;;;;;4981111;28;20440;-51
2022/04/04 07:56:04;;;;;;;6.30;4.03;;;19.40;65.60;;;;;;4980860;28;20450;-51
2022/04/04 07:58:31;;;;;;;5.03;4.43;;;19.50;63.50;;;;;;4981409;28;20464;-50
2022/04/04 08:00:59;;;;;;;9.33;5.50;;;19.80;63.80;;;;;;4983261;28;20496;-50
2022/04/04 08:03:27;;;;;;;9.57;4.70;;;20.40;63.10;;;;;;4981057;28;20464;-51
2022/04/04 08:05:54;;;;;;;4.47;4.10;;;20.70;61.20;;;;;;4980290;28;20949;-52
2022/04/04 08:08:22;;;;;;;6.27;5.47;;;19.50;61.90;;;;;;4980391;28;20471;-54
2022/04/04 08:10:50;;;;;;;4.93;4.50;;;19.70;62.20;;;;;;4980522;28;20429;-53
2022/04/04 08:13:18;;;;;;;5.57;4.50;;;20.00;62.80;;;;;;4973094;28;20452;-53
2022/04/04 08:15:46;;;;;;;9.83;4.70;;;20.30;60.70;;;;;;4980768;28;20652;-49
2022/04/04 08:18:14;;;;;;;4.27;3.97;;;20.10;61.10;;;;;;4980190;28;20457;-51
2022/04/04 08:20:42;;;;;;;4.70;4.33;;;20.50;60.20;;;;;;4980300;28;20499;-50
2022/04/04 08:23:20;;;;;;;4.60;4.20;;;19.30;61.60;;;;;;4980442;28;20542;-49
2022/04/04 08:25:49;;;;;;;5.10;4.57;;;19.20;62.60;;;;;;4980106;28;20444;-50
2022/04/04 08:28:22;;;;;;;5.50;4.30;;;19.60;59.70;;;;;;4963899;28;20424;-52
2022/04/04 08:30:55;;;;;;;6.83;5.90;;;19.90;59.80;;;;;;4964955;28;20444;-47
2022/04/04 08:33:31;;;;;;;5.10;4.63;;;20.30;59.20;;;;;;4977471;28;20603;-51
2022/04/04 08:36:00;;;;;;;7.00;6.30;;;19.80;59.30;;;;;;4983886;28;20482;-49
2022/04/04 08:38:28;;;;;;;5.23;4.73;;;20.00;59.50;;;;;;4984329;28;20431;-53
2022/04/04 08:41:03;;;;;;;5.17;4.77;;;20.60;59.00;;;;;;4984537;28;20440;-51
2022/04/04 08:43:36;;;;;;;5.70;4.90;;;20.10;58.10;;;;;;4983902;28;20487;-56
2022/04/04 08:46:06;;;;;;;6.87;4.97;;;21.10;57.70;;;;;;4984553;28;20688;-54
2022/04/04 08:48:38;;;;;;;5.50;4.43;;;21.20;56.20;;;;;;4983926;28;20681;-48
2022/04/04 08:51:08;;;;;;;4.47;4.07;;;21.10;56.70;;;;;;4983746;28;20585;-48
2022/04/04 08:53:37;;;;;;;5.33;4.47;;;21.80;57.30;;;;;;4984046;28;20438;-53
2022/04/04 08:56:06;;;;;;;4.33;3.97;;;21.40;55.40;;;;;;4984190;28;20438;-48
2022/04/04 08:58:33;;;;;;;6.27;5.40;;;21.00;56.80;;;;;;4983837;28;20476;-52
2022/04/04 09:01:01;;;;;;;6.00;5.40;;;21.10;55.70;;;;;;4981899;28;20472;-49
2022/04/04 09:03:30;;;;;;;4.40;4.00;;;20.40;58.70;;;;;;4984459;28;20426;-52
2022/04/04 09:06:04;;;;;;;4.27;3.97;;;20.50;58.10;;;;;;4983927;28;20455;-50
2022/04/04 09:08:51;;;;;;;5.23;4.30;;;19.30;58.40;;;;;;4984096;28;20679;-51
2022/04/04 09:11:19;;;;;;;5.73;4.30;;;18.40;60.70;;;;;;4983813;28;20432;-49
2022/04/04 09:14:08;;;;;;;3.83;3.50;;;17.90;61.50;;;;;;4984306;28;20406;-47
2022/04/04 09:16:36;;;;;;;5.90;3.83;;;17.30;63.10;;;;;;4984257;28;20446;-51
2022/04/04 09:19:04;;;;;;;9.13;4.60;;;17.20;62.00;;;;;;4983673;28;20432;-51
2022/04/04 09:21:33;;;;;;;3.47;3.17;;;15.50;65.90;;;;;;4983781;28;20449;-54
2022/04/04 09:24:07;;;;;;;5.73;5.00;;;15.00;68.00;;;;;;4981994;28;20482;-49
2022/04/04 09:26:43;;;;;;;5.30;4.23;;;14.50;69.50;;;;;;4976097;28;20423;-50
2022/04/04 09:29:24;;;;;;;4.40;3.88;;;13.80;70.50;;;;;;4982016;28;20481;-51
2022/04/04 09:32:05;;;;;;;3.58;3.25;;;13.10;72.80;;;;;;4985068;28;20213;-57
2022/04/04 09:35:04;;;;;;;4.10;3.63;;;13.00;72.90;;;;;;4986654;28;20327;-55
2022/04/04 09:37:33;;;;;;;7.35;4.35;;;12.70;72.60;;;;;;4979322;28;20221;-51
2022/04/04 09:40:12;;;;;;;3.60;3.30;;;12.40;74.20;;;;;;4978990;28;20300;-48
2022/04/04 09:42:43;;;;;;;4.63;4.18;;;12.60;74.20;;;;;;4982867;28;20245;-54
2022/04/04 09:45:12;;;;;;;3.67;3.38;;;12.90;73.00;;;;;;4981903;28;20237;-48
2022/04/04 09:47:49;;;;;;;2.97;2.78;;;12.80;74.30;;;;;;4983136;28;20340;-49
2022/04/04 09:50:38;;;;;;;4.45;4.18;;;12.90;75.20;;;;;;4983231;28;20241;-47
2022/04/04 09:53:22;;;;;;;5.38;3.42;;;12.90;74.70;;;;;;4982771;28;20214;-50
2022/04/04 09:55:55;;;;;;;4.95;3.63;;;12.50;75.10;;;;;;4983153;28;20206;-56
2022/04/04 09:58:26;;;;;;;4.72;3.50;;;12.00;75.50;;;;;;4976544;28;20285;-52
2022/04/04 10:00:55;;;;;;;3.53;2.35;;;12.20;75.60;;;;;;4983329;28;20542;-49
2022/04/04 10:03:23;;;;;;;3.60;3.28;;;12.20;75.30;;;;;;4983204;28;20202;-49
2022/04/04 10:06:22;;;;;;;4.18;3.17;;;12.20;76.30;;;;;;4983581;28;20403;-49
2022/04/04 10:08:54;;;;;;;9.25;4.43;;;12.40;76.40;;;;;;4971035;28;20257;-51
2022/04/04 10:11:23;;;;;;;7.70;3.65;;;12.60;76.20;;;;;;4983438;28;20210;-47
2022/04/04 10:13:52;;;;;;;4.07;3.28;;;12.50;75.50;;;;;;4983058;28;20208;-52
2022/04/04 10:16:24;;;;;;;4.00;3.30;;;12.20;76.60;;;;;;4983046;28;20206;-54
2022/04/04 10:18:54;;;;;;;3.95;2.88;;;12.20;76.80;;;;;;4982713;28;20409;-49
2022/04/04 10:21:23;;;;;;;4.47;4.07;;;12.30;76.80;;;;;;4983307;28;20205;-51
2022/04/04 10:23:53;;;;;;;4.32;3.92;;;12.20;76.40;;;;;;4982910;28;20241;-53
2022/04/04 10:26:29;;;;;;;3.58;3.15;;;12.00;78.10;;;;;;4983343;28;20245;-50
2022/04/04 10:29:14;;;;;;;3.60;3.30;;;11.90;77.70;;;;;;4982623;28;20206;-50
2022/04/04 10:31:52;;;;;;;6.00;3.53;;;11.90;78.30;;;;;;4983199;28;20270;-48
2022/04/04 10:34:23;;;;;;;3.58;3.28;;;11.90;76.90;;;;;;4983196;28;20190;-48
2022/04/04 10:37:08;;;;;;;3.90;3.53;;;11.90;78.20;;;;;;4983211;28;20241;-55
2022/04/04 10:39:47;;;;;;;3.75;3.25;;;11.90;77.10;;;;;;4983022;28;20230;-52
2022/04/04 10:42:34;;;;;;;3.13;2.92;;;12.00;78.40;;;;;;4982767;28;20228;-50
2022/04/04 10:45:07;;;;;;;3.63;3.25;;;12.00;78.00;;;;;;4982990;28;20229;-49
2022/04/04 10:47:36;;;;;;;3.70;3.40;;;11.80;77.70;;;;;;4984342;28;20245;-55
2022/04/04 10:50:30;;;;;;;7.13;3.80;;;11.50;78.90;;;;;;4982887;28;20209;-51
2022/04/04 10:53:02;;;;;;;3.65;3.38;;;11.70;79.10;;;;;;4993876;28;20213;-48
2022/04/04 10:55:41;;;;;;;3.30;3.10;;;12.00;78.70;;;;;;4982786;28;20210;-50
2022/04/04 10:58:16;;;;;;;5.47;3.67;;;12.40;76.10;;;;;;4981984;28;20225;-52
2022/04/04 11:01:07;;;;;;;3.63;3.33;;;12.50;75.50;;;;;;4982734;28;20202;-49
2022/04/04 11:03:39;;;;;;;4.75;4.38;;;12.20;76.50;;;;;;4982040;28;20470;-47
2022/04/04 11:09:00;;;;;;;3.75;3.45;;;12.00;77.50;;;;;;4981813;28;20198;-52
2022/04/04 11:11:49;;;;;;;6.60;5.38;;;11.70;79.90;;;;;;4981796;28;20199;-54
2022/04/04 11:14:19;;;;;;;3.65;3.35;;;11.60;78.80;;;;;;4981778;28;20244;-51
2022/04/04 11:17:08;;;;;;;4.30;4.00;;;11.80;78.60;;;;;;4982327;28;20226;-50
2022/04/04 11:20:03;;;;;;;4.90;4.47;;;12.00;79.30;;;;;;4981490;28;20205;-47
2022/04/04 11:22:36;;;;;;;4.43;3.35;;;11.80;78.70;;;;;;4984320;28;20212;-50
2022/04/04 11:25:06;;;;;;;5.82;3.67;;;11.80;78.00;;;;;;4983308;28;20689;-47
2022/04/04 11:27:37;;;;;;;5.07;3.33;;;12.10;76.50;;;;;;4982586;28;20225;-46
2022/04/04 11:30:13;;;;;;;4.00;3.60;;;12.20;76.60;;;;;;4981473;28;20205;-50
2022/04/04 11:32:49;;;;;;;5.78;4.72;;;12.10;76.70;;;;;;4982040;28;20434;-50
2022/04/04 11:35:21;;;;;;;5.97;3.63;;;12.10;75.60;;;;;;4982286;28;20206;-47
2022/04/04 11:38:12;;;;;;;3.47;3.28;;;12.00;76.00;;;;;;4981708;28;20309;-49
2022/04/04 11:40:47;;;;;;;3.47;3.17;;;12.10;75.40;;;;;;4981802;28;20210;-56
2022/04/04 11:43:16;;;;;;;4.32;3.92;;;12.20;76.50;;;;;;4981911;28;20205;-50
2022/04/04 11:45:44;;;;;;;4.03;3.67;;;12.10;75.40;;;;;;4981904;28;20226;-55
2022/04/04 11:48:19;;;;;;;3.78;3.22;;;11.90;76.60;;;;;;4981082;28;20260;-50
2022/04/04 11:50:50;;;;;;;3.60;3.30;;;11.60;77.10;;;;;;4977732;28;20236;-51
2022/04/04 11:53:25;;;;;;;3.38;3.13;;;11.50;75.30;;;;;;4973190;28;20523;-47
2022/04/04 11:56:03;;;;;;;4.07;3.78;;;11.70;76.20;;;;;;4981426;28;20220;-53
2022/04/04 11:58:32;;;;;;;3.60;3.30;;;11.80;76.20;;;;;;4981134;28;20229;-50
2022/04/04 12:01:04;;;;;;;4.90;4.40;;;11.90;77.20;;;;;;4981004;28;20251;-48
2022/04/04 12:03:43;;;;;;;4.47;4.07;;;11.70;77.50;;;;;;4981066;28;20524;-52
2022/04/04 12:06:10;;;;;;;5.22;3.45;;;11.80;76.30;;;;;;4981273;28;20225;-50
2022/04/04 12:08:42;;;;;;;3.03;2.83;;;11.70;76.20;;;;;;4981307;28;20225;-54
2022/04/04 12:11:10;;;;;;;3.55;3.25;;;11.60;75.70;;;;;;4981068;28;20201;-50
2022/04/04 12:13:53;;;;;;;2.97;2.78;;;11.30;75.10;;;;;;4981447;28;20204;-47
2022/04/04 12:16:22;;;;;;;3.88;3.53;;;11.20;77.70;;;;;;4981303;28;20598;-49
2022/04/04 12:19:00;;;;;;;6.97;3.95;;;11.20;75.90;;;;;;4980997;28;20239;-50
2022/04/04 12:21:28;;;;;;;5.43;4.88;;;11.00;76.90;;;;;;4980973;28;20428;-46
2022/04/04 12:26:44;;;;;;;6.20;3.13;;;11.70;77.50;;;;;;4980677;28;20256;-53
2022/04/04 12:29:13;;;;;;;5.75;3.95;;;11.90;73.90;;;;;;4981142;28;20446;-52
2022/04/04 12:31:56;;;;;;;3.10;2.78;;;12.00;74.10;;;;;;4980649;28;20202;-49
2022/04/04 12:34:24;;;;;;;3.00;2.80;;;11.80;74.30;;;;;;4974630;28;20235;-52
2022/04/04 12:36:59;;;;;;;7.63;3.40;;;11.40;74.40;;;;;;4980554;28;20221;-50
2022/04/04 12:39:26;;;;;;;3.42;3.03;;;11.00;74.80;;;;;;4980942;28;20207;-52
2022/04/04 12:41:55;;;;;;;5.80;3.22;;;11.30;74.30;;;;;;4980424;28;20202;-54
2022/04/04 12:44:25;;;;;;;2.65;2.45;;;11.40;75.20;;;;;;4980900;28;20215;-47
2022/04/04 12:47:06;;;;;;;4.15;3.38;;;11.70;74.20;;;;;;4980891;28;20229;-55
2022/04/04 12:49:34;;;;;;;5.75;2.92;;;11.90;73.00;;;;;;4981228;28;20243;-48
2022/04/04 12:52:22;;;;;;;3.85;2.45;;;11.80;73.00;;;;;;4981077;28;20197;-49
2022/04/04 12:54:49;;;;;;;2.75;2.47;;;11.90;73.60;;;;;;4981183;28;20209;-49
2022/04/04 12:57:27;;;;;;;3.92;3.30;;;11.80;73.00;;;;;;4980763;28;20225;-48
2022/04/04 12:59:57;;;;;;;3.67;2.83;;;11.70;73.20;;;;;;4980641;28;20333;-51
2022/04/04 13:02:32;;;;;;;4.13;2.63;;;12.00;73.40;;;;;;4981040;28;20206;-49
2022/04/04 13:05:14;;;;;;;3.50;3.20;;;11.80;71.30;;;;;;4979254;28;20267;-51
2022/04/04 13:07:54;;;;;;;4.32;3.05;;;11.60;72.50;;;;;;4975973;28;20234;-51
2022/04/04 13:10:24;;;;;;;3.38;2.30;;;11.60;72.70;;;;;;4960890;28;20205;-47
2022/04/04 13:13:11;;;;;;;3.03;2.80;;;12.00;72.10;;;;;;4961059;28;20205;-54
2022/04/04 13:15:43;;;;;;;2.15;2.05;;;11.90;71.30;;;;;;4980194;28;20252;-52
2022/04/04 13:18:29;;;;;;;2.15;2.05;;;11.60;73.10;;;;;;4985272;28;20234;-50